Back to Top

Language: 

My Weather Underground Personal Weather Station Historical Data with Graphs...

Delerius Weather Station Historical Data
Daily Summary for October 5, 2017 Units:  English    Metric   Both
« Previous Day
Next Day »
Daily Weekly Monthly Yearly Custom
  High: Low: Average:
Temperature: 60.6 °F 48.4 °F 54.9 °F
Dew Point: 56.6 °F 43.9 °F 48.2 °F
Humidity: 92 % 57 % 79 %
Wind Speed: 22.0 mph 5.0 mph 12.5 mph
Wind Gust: 43.0 mph - -
Wind:- - WNW
Pressure: 30.17 in 29.62 in -
Precipitation: 0.02 in    
Historical Graphs
 
 
Tabular Data for October 5, 2017
Time Temperature Dew Point Pressure Wind Wind Speed Wind Gust Humidity Rainfall Rate (Hourly) solar Conditions
00:04 56.1 °F 53.5 °F 29.75 in WSW 13.0 mph 23.0 mph 91 % 0.00 in 0 W/m2
00:09 56.1 °F 53.5 °F 29.74 in WSW 14.0 mph 25.0 mph 91 % 0.00 in 0 W/m2
00:14 56.5 °F 53.6 °F 29.74 in WSW 15.0 mph 25.0 mph 90 % 0.01 in 0 W/m2
00:19 56.5 °F 53.6 °F 29.73 in WSW 15.0 mph 25.0 mph 90 % 0.01 in 0 W/m2
00:24 56.3 °F 53.7 °F 29.73 in WSW 16.0 mph 29.0 mph 91 % 0.01 in 0 W/m2
00:29 56.5 °F 53.6 °F 29.72 in WSW 18.0 mph 29.0 mph 90 % 0.01 in 0 W/m2
00:34 56.5 °F 53.6 °F 29.72 in WSW 17.0 mph 29.0 mph 90 % 0.01 in 0 W/m2
00:39 56.5 °F 53.9 °F 29.72 in WSW 16.0 mph 29.0 mph 91 % 0.01 in 0 W/m2
00:44 56.7 °F 54.1 °F 29.72 in WSW 17.0 mph 33.0 mph 91 % 0.01 in 0 W/m2
00:49 56.7 °F 54.1 °F 29.71 in WSW 17.0 mph 33.0 mph 91 % 0.01 in 0 W/m2
00:54 56.7 °F 54.1 °F 29.71 in WSW 17.0 mph 30.0 mph 91 % 0.01 in 0 W/m2
00:59 56.8 °F 54.2 °F 29.70 in WSW 16.0 mph 28.0 mph 91 % 0.01 in 0 W/m2
01:04 56.8 °F 54.2 °F 29.70 in WSW 15.0 mph 28.0 mph 91 % 0.01 in 0 W/m2
01:09 56.8 °F 54.2 °F 29.69 in WSW 16.0 mph 30.0 mph 91 % 0.01 in 0 W/m2
01:14 57.0 °F 54.4 °F 29.69 in WSW 18.0 mph 30.0 mph 91 % 0.00 in 0 W/m2
01:20 57.0 °F 54.4 °F 29.69 in WSW 16.0 mph 28.0 mph 91 % 0.00 in 0 W/m2
01:25 57.2 °F 54.3 °F 29.69 in WSW 17.0 mph 31.0 mph 90 % 0.00 in 0 W/m2
01:30 57.2 °F 54.3 °F 29.69 in WSW 16.0 mph 31.0 mph 90 % 0.00 in 0 W/m2
01:35 57.2 °F 54.6 °F 29.69 in WSW 16.0 mph 28.0 mph 91 % 0.00 in 0 W/m2
01:40 57.2 °F 54.6 °F 29.69 in WSW 18.0 mph 29.0 mph 91 % 0.00 in 0 W/m2
01:45 57.2 °F 54.6 °F 29.68 in WSW 16.0 mph 29.0 mph 91 % 0.00 in 0 W/m2
01:50 57.2 °F 54.6 °F 29.67 in WSW 15.0 mph 25.0 mph 91 % 0.00 in 0 W/m2
01:55 57.4 °F 54.8 °F 29.67 in WSW 16.0 mph 27.0 mph 91 % 0.01 in 0 W/m2
02:00 57.4 °F 54.8 °F 29.67 in WSW 16.0 mph 27.0 mph 91 % 0.01 in 0 W/m2
02:05 57.4 °F 54.8 °F 29.66 in WSW 16.0 mph 26.0 mph 91 % 0.01 in 0 W/m2
02:10 57.6 °F 55.0 °F 29.66 in WSW 16.0 mph 29.0 mph 91 % 0.01 in 0 W/m2
02:15 57.7 °F 55.1 °F 29.66 in WSW 18.0 mph 30.0 mph 91 % 0.01 in 0 W/m2
02:20 57.9 °F 55.3 °F 29.65 in WSW 18.0 mph 30.0 mph 91 % 0.01 in 0 W/m2
02:25 57.9 °F 55.3 °F 29.65 in WSW 17.0 mph 30.0 mph 91 % 0.01 in 0 W/m2
02:30 58.1 °F 55.5 °F 29.65 in WSW 17.0 mph 30.0 mph 91 % 0.01 in 0 W/m2
02:40 58.3 °F 55.4 °F 29.65 in WSW 18.0 mph 30.0 mph 90 % 0.01 in 0 W/m2
02:45 58.3 °F 55.4 °F 29.64 in WSW 18.0 mph 30.0 mph 90 % 0.01 in 0 W/m2
02:50 58.3 °F 55.7 °F 29.64 in WSW 17.0 mph 29.0 mph 91 % 0.01 in 0 W/m2
02:55 58.5 °F 55.8 °F 29.64 in WSW 18.0 mph 30.0 mph 91 % 0.00 in 0 W/m2
03:00 58.5 °F 55.8 °F 29.63 in West 19.0 mph 30.0 mph 91 % 0.00 in 0 W/m2
03:05 58.5 °F 55.8 °F 29.63 in West 20.0 mph 29.0 mph 91 % 0.01 in 0 W/m2
03:10 58.5 °F 55.8 °F 29.62 in West 19.0 mph 31.0 mph 91 % 0.01 in 0 W/m2
03:15 58.5 °F 55.8 °F 29.62 in West 19.0 mph 31.0 mph 91 % 0.01 in 0 W/m2
03:20 58.5 °F 55.8 °F 29.62 in West 18.0 mph 30.0 mph 91 % 0.01 in 0 W/m2
03:25 58.3 °F 55.7 °F 29.62 in West 17.0 mph 31.0 mph 91 % 0.01 in 0 W/m2
03:30 58.3 °F 56.0 °F 29.62 in West 18.0 mph 31.0 mph 92 % 0.01 in 0 W/m2
03:35 58.5 °F 56.1 °F 29.62 in West 18.0 mph 39.0 mph 92 % 0.01 in 0 W/m2
03:40 58.5 °F 56.1 °F 29.62 in West 18.0 mph 39.0 mph 92 % 0.01 in 0 W/m2
03:45 58.6 °F 56.3 °F 29.62 in West 17.0 mph 31.0 mph 92 % 0.01 in 0 W/m2
03:50 58.8 °F 56.5 °F 29.62 in West 19.0 mph 32.0 mph 92 % 0.01 in 0 W/m2
03:56 59.2 °F 56.6 °F 29.63 in West 22.0 mph 34.0 mph 91 % 0.01 in 0 W/m2
04:01 59.4 °F 56.4 °F 29.63 in West 22.0 mph 37.0 mph 90 % 0.01 in 0 W/m2
04:06 59.5 °F 56.3 °F 29.64 in West 22.0 mph 38.0 mph 89 % 0.00 in 0 W/m2
04:11 59.5 °F 56.3 °F 29.64 in WNW 22.0 mph 43.0 mph 89 % 0.00 in 0 W/m2
04:16 59.5 °F 56.0 °F 29.65 in WNW 21.0 mph 43.0 mph 88 % 0.00 in 0 W/m2
04:21 59.5 °F 56.0 °F 29.65 in WNW 21.0 mph 38.0 mph 88 % 0.00 in 0 W/m2
04:23 59.5 °F 56.0 °F 29.65 in WNW 21.0 mph 38.0 mph 88 % 0.00 in 0 W/m2
04:27 59.5 °F 56.0 °F 29.66 in WNW 20.0 mph 38.0 mph 88 % 0.00 in 0 W/m2
04:34 59.2 °F 55.6 °F 29.66 in WNW 19.0 mph 30.0 mph 88 % 0.00 in 0 W/m2
04:39 58.8 °F 55.0 °F 29.66 in WNW 18.0 mph 32.0 mph 87 % 0.00 in 0 W/m2
04:44 58.6 °F 54.1 °F 29.67 in WNW 17.0 mph 41.0 mph 85 % 0.00 in 0 W/m2
04:45 58.5 °F 54.0 °F 29.67 in WNW 18.0 mph 41.0 mph 85 % 0.00 in 0 W/m2
04:50 58.1 °F 53.0 °F 29.67 in WNW 18.0 mph 41.0 mph 83 % 0.00 in 0 W/m2
04:55 57.7 °F 52.6 °F 29.68 in WNW 18.0 mph 31.0 mph 83 % 0.00 in 0 W/m2
05:00 57.4 °F 52.3 °F 29.68 in WNW 17.0 mph 31.0 mph 83 % 0.00 in 0 W/m2
05:05 56.8 °F 52.1 °F 29.69 in WNW 17.0 mph 29.0 mph 84 % 0.00 in 0 W/m2
05:10 56.5 °F 51.7 °F 29.70 in WNW 15.0 mph 29.0 mph 84 % 0.00 in 0 W/m2
05:15 56.1 °F 51.7 °F 29.71 in WNW 13.0 mph 30.0 mph 85 % 0.00 in 0 W/m2
05:20 55.8 °F 51.3 °F 29.72 in WNW 15.0 mph 30.0 mph 85 % 0.00 in 0 W/m2
05:30 55.4 °F 51.3 °F 29.74 in NW 14.0 mph 25.0 mph 86 % 0.00 in 0 W/m2
05:35 55.2 °F 51.1 °F 29.75 in NW 12.0 mph 23.0 mph 86 % 0.00 in 0 W/m2
05:40 54.5 °F 49.4 °F 29.77 in NNW 12.0 mph 21.0 mph 83 % 0.00 in 0 W/m2
05:45 52.9 °F 48.2 °F 29.78 in North 13.0 mph 21.0 mph 84 % 0.00 in 0 W/m2
05:50 51.8 °F 47.7 °F 29.78 in North 12.0 mph 22.0 mph 86 % 0.00 in 0 W/m2
05:55 51.3 °F 47.5 °F 29.79 in NNW 11.0 mph 22.0 mph 87 % 0.00 in 0 W/m2
06:00 51.1 °F 47.0 °F 29.80 in NNW 9.0 mph 19.0 mph 86 % 0.00 in 0 W/m2
06:05 50.9 °F 47.2 °F 29.81 in NNW 7.0 mph 16.0 mph 87 % 0.00 in 0 W/m2
06:10 50.7 °F 46.7 °F 29.81 in NNW 9.0 mph 23.0 mph 86 % 0.00 in 0 W/m2
06:15 50.7 °F 46.7 °F 29.82 in NNW 10.0 mph 23.0 mph 86 % 0.00 in 0 W/m2
06:20 50.5 °F 46.2 °F 29.83 in NNW 9.0 mph 23.0 mph 85 % 0.00 in 0 W/m2
06:25 50.5 °F 46.2 °F 29.83 in NNW 8.0 mph 21.0 mph 85 % 0.00 in 0 W/m2
06:30 50.5 °F 46.2 °F 29.84 in NNW 7.0 mph 21.0 mph 85 % 0.00 in 0 W/m2
06:35 50.4 °F 46.3 °F 29.84 in NW 7.0 mph 20.0 mph 86 % 0.00 in 0 W/m2
06:40 50.4 °F 46.3 °F 29.85 in NW 8.0 mph 20.0 mph 86 % 0.00 in 0 W/m2
06:45 50.4 °F 46.3 °F 29.85 in NW 7.0 mph 15.0 mph 86 % 0.00 in 0 W/m2
06:50 50.2 °F 45.8 °F 29.86 in NW 9.0 mph 18.0 mph 85 % 0.00 in 0 W/m2
06:55 49.8 °F 45.5 °F 29.86 in NW 10.0 mph 18.0 mph 85 % 0.00 in 0 W/m2
07:01 49.6 °F 45.3 °F 29.87 in WNW 8.0 mph 15.0 mph 85 % 0.00 in 0 W/m2
07:11 49.3 °F 44.6 °F 29.88 in NW 7.0 mph 16.0 mph 84 % 0.00 in 0 W/m2
07:16 48.9 °F 44.3 °F 29.89 in NW 8.0 mph 16.0 mph 84 % 0.00 in 5 W/m2
07:21 48.7 °F 44.1 °F 29.89 in NW 8.0 mph 15.0 mph 84 % 0.00 in 7 W/m2
07:26 48.7 °F 44.1 °F 29.90 in NW 8.0 mph 13.0 mph 84 % 0.00 in 9 W/m2
07:31 48.6 °F 43.9 °F 29.90 in NW 7.0 mph 12.0 mph 84 % 0.00 in 11 W/m2
07:36 48.6 °F 44.3 °F 29.90 in WNW 7.0 mph 15.0 mph 85 % 0.00 in 14 W/m2
07:41 48.6 °F 44.3 °F 29.91 in WNW 7.0 mph 15.0 mph 85 % 0.00 in 16 W/m2
07:46 48.6 °F 44.3 °F 29.91 in WNW 5.0 mph 10.0 mph 85 % 0.00 in 23 W/m2
07:51 48.4 °F 44.1 °F 29.91 in WNW 5.0 mph 10.0 mph 85 % 0.00 in 58 W/m2
07:56 48.6 °F 44.3 °F 29.91 in WNW 5.0 mph 11.0 mph 85 % 0.00 in 67 W/m2
08:01 48.7 °F 44.4 °F 29.91 in WNW 7.0 mph 13.0 mph 85 % 0.00 in 86 W/m2
08:06 48.9 °F 44.3 °F 29.91 in WNW 7.0 mph 13.0 mph 84 % 0.00 in 91 W/m2
08:11 49.3 °F 44.3 °F 29.92 in WNW 7.0 mph 15.0 mph 83 % 0.00 in 114 W/m2
08:12 49.3 °F 44.3 °F 29.92 in WNW 7.0 mph 15.0 mph 83 % 0.00 in 116 W/m2
08:17 49.3 °F 44.3 °F 29.92 in WNW 7.0 mph 15.0 mph 83 % 0.00 in 130 W/m2
08:20 49.5 °F 44.5 °F 29.92 in WNW 8.0 mph 18.0 mph 83 % 0.00 in 135 W/m2
08:25 49.8 °F 44.5 °F 29.92 in WNW 10.0 mph 20.0 mph 82 % 0.00 in 149 W/m2
08:30 50.2 °F 44.9 °F 29.92 in WNW 12.0 mph 20.0 mph 82 % 0.00 in 162 W/m2
08:35 50.4 °F 45.1 °F 29.93 in WNW 9.0 mph 16.0 mph 82 % 0.00 in 172 W/m2
08:40 50.5 °F 44.9 °F 29.93 in WNW 9.0 mph 16.0 mph 81 % 0.00 in 185 W/m2
08:45 50.9 °F 45.3 °F 29.93 in WNW 10.0 mph 19.0 mph 81 % 0.00 in 199 W/m2
08:50 51.1 °F 45.1 °F 29.93 in WNW 10.0 mph 19.0 mph 80 % 0.00 in 200 W/m2
08:55 51.3 °F 45.3 °F 29.93 in WNW 12.0 mph 23.0 mph 80 % 0.00 in 225 W/m2
09:00 51.6 °F 45.7 °F 29.94 in WNW 13.0 mph 23.0 mph 80 % 0.00 in 237 W/m2
09:05 51.8 °F 45.8 °F 29.94 in WNW 13.0 mph 21.0 mph 80 % 0.00 in 250 W/m2
09:10 52.2 °F 46.2 °F 29.94 in WNW 13.0 mph 25.0 mph 80 % 0.00 in 260 W/m2
09:15 52.3 °F 46.0 °F 29.95 in WNW 14.0 mph 25.0 mph 79 % 0.00 in 274 W/m2
09:20 52.9 °F 46.5 °F 29.95 in WNW 13.0 mph 24.0 mph 79 % 0.00 in 285 W/m2
09:25 53.1 °F 46.4 °F 29.95 in WNW 12.0 mph 23.0 mph 78 % 0.00 in 299 W/m2
09:30 53.2 °F 46.6 °F 29.96 in WNW 13.0 mph 23.0 mph 78 % 0.00 in 311 W/m2
09:35 53.4 °F 46.7 °F 29.96 in WNW 12.0 mph 21.0 mph 78 % 0.00 in 322 W/m2
09:40 54.0 °F 46.9 °F 29.96 in WNW 12.0 mph 21.0 mph 77 % 0.00 in 336 W/m2
09:45 54.1 °F 47.1 °F 29.96 in WNW 13.0 mph 22.0 mph 77 % 0.00 in 348 W/m2
09:50 54.3 °F 46.9 °F 29.96 in WNW 12.0 mph 22.0 mph 76 % 0.00 in 359 W/m2
09:55 54.7 °F 46.9 °F 29.97 in WNW 12.0 mph 20.0 mph 75 % 0.00 in 371 W/m2
10:00 55.0 °F 47.3 °F 29.97 in WNW 12.0 mph 20.0 mph 75 % 0.00 in 380 W/m2
10:05 55.2 °F 46.7 °F 29.98 in WNW 11.0 mph 19.0 mph 73 % 0.00 in 394 W/m2
10:10 55.6 °F 47.1 °F 29.98 in WNW 12.0 mph 24.0 mph 73 % 0.00 in 406 W/m2
10:15 55.6 °F 47.1 °F 29.98 in WNW 13.0 mph 24.0 mph 73 % 0.00 in 441 W/m2
10:20 55.9 °F 47.4 °F 29.99 in WNW 11.0 mph 23.0 mph 73 % 0.00 in 466 W/m2
10:25 55.9 °F 47.0 °F 29.99 in WNW 10.0 mph 22.0 mph 72 % 0.00 in 102 W/m2
10:31 55.9 °F 46.7 °F 29.99 in WNW 11.0 mph 21.0 mph 71 % 0.00 in 471 W/m2
10:36 56.1 °F 46.8 °F 29.99 in WNW 11.0 mph 21.0 mph 71 % 0.00 in 471 W/m2
10:41 56.3 °F 47.0 °F 29.99 in WNW 12.0 mph 20.0 mph 71 % 0.00 in 462 W/m2
10:46 56.5 °F 47.2 °F 29.99 in WNW 11.0 mph 20.0 mph 71 % 0.00 in 450 W/m2
10:51 56.7 °F 47.0 °F 29.99 in WNW 11.0 mph 19.0 mph 70 % 0.00 in 441 W/m2
10:56 56.8 °F 47.5 °F 29.99 in WNW 10.0 mph 19.0 mph 71 % 0.00 in 512 W/m2
11:06 57.4 °F 48.1 °F 30.00 in WNW 10.0 mph 19.0 mph 71 % 0.00 in 552 W/m2
11:16 57.7 °F 46.9 °F 30.00 in WNW 12.0 mph 21.0 mph 67 % 0.00 in 545 W/m2
11:21 57.9 °F 46.6 °F 30.00 in WNW 13.0 mph 23.0 mph 66 % 0.00 in 534 W/m2
11:26 57.9 °F 47.0 °F 30.00 in WNW 13.0 mph 23.0 mph 67 % 0.00 in 559 W/m2
11:31 57.9 °F 46.2 °F 30.00 in WNW 14.0 mph 25.0 mph 65 % 0.00 in 547 W/m2
11:36 57.9 °F 46.2 °F 30.00 in WNW 14.0 mph 25.0 mph 65 % 0.00 in 548 W/m2
11:41 58.3 °F 46.6 °F 30.00 in WNW 13.0 mph 24.0 mph 65 % 0.00 in 548 W/m2
11:46 58.3 °F 46.2 °F 30.00 in WNW 14.0 mph 25.0 mph 64 % 0.00 in 557 W/m2
11:51 58.5 °F 46.3 °F 30.00 in WNW 15.0 mph 25.0 mph 64 % 0.00 in 559 W/m2
11:56 58.5 °F 45.9 °F 30.01 in WNW 14.0 mph 25.0 mph 63 % 0.00 in 561 W/m2
12:01 58.6 °F 45.7 °F 30.01 in WNW 15.0 mph 24.0 mph 62 % 0.00 in 570 W/m2
12:06 58.6 °F 45.7 °F 30.01 in WNW 16.0 mph 27.0 mph 62 % 0.00 in 573 W/m2
12:11 58.8 °F 45.8 °F 30.01 in WNW 15.0 mph 27.0 mph 62 % 0.00 in 585 W/m2
12:16 59.0 °F 46.0 °F 30.01 in WNW 14.0 mph 26.0 mph 62 % 0.00 in 594 W/m2
12:21 59.4 °F 46.8 °F 30.01 in WNW 13.0 mph 22.0 mph 63 % 0.00 in 564 W/m2
12:26 59.5 °F 46.5 °F 30.01 in WNW 13.0 mph 26.0 mph 62 % 0.00 in 601 W/m2
12:31 59.5 °F 46.5 °F 30.02 in WNW 13.0 mph 26.0 mph 62 % 0.00 in 606 W/m2
12:36 59.4 °F 46.3 °F 30.02 in WNW 12.0 mph 23.0 mph 62 % 0.00 in 174 W/m2
12:41 59.2 °F 46.6 °F 30.01 in NW 12.0 mph 26.0 mph 63 % 0.00 in 91 W/m2
12:46 58.8 °F 45.8 °F 30.01 in NW 12.0 mph 26.0 mph 62 % 0.00 in 132 W/m2
12:52 58.8 °F 46.2 °F 30.02 in NW 11.0 mph 23.0 mph 63 % 0.00 in 262 W/m2
12:57 58.6 °F 46.1 °F 30.02 in NW 11.0 mph 23.0 mph 63 % 0.00 in 686 W/m2
13:02 59.2 °F 46.6 °F 30.02 in WNW 11.0 mph 21.0 mph 63 % 0.00 in 156 W/m2
13:07 59.2 °F 47.0 °F 30.02 in WNW 12.0 mph 22.0 mph 64 % 0.00 in 684 W/m2
13:12 59.4 °F 46.3 °F 30.03 in WNW 14.0 mph 26.0 mph 62 % 0.00 in 346 W/m2
13:17 59.2 °F 45.7 °F 30.03 in WNW 15.0 mph 26.0 mph 61 % 0.00 in 628 W/m2
13:22 59.2 °F 46.2 °F 30.03 in WNW 16.0 mph 25.0 mph 62 % 0.00 in 645 W/m2
13:42 60.1 °F 46.1 °F 30.03 in WNW 13.0 mph 28.0 mph 60 % 0.00 in 664 W/m2
13:47 60.3 °F 46.3 °F 30.02 in WNW 13.0 mph 24.0 mph 60 % 0.00 in 638 W/m2
13:52 60.1 °F 44.8 °F 30.03 in WNW 16.0 mph 32.0 mph 57 % 0.00 in 619 W/m2
13:57 59.5 °F 44.7 °F 30.03 in WNW 17.0 mph 32.0 mph 58 % 0.00 in 585 W/m2
14:02 59.2 °F 45.3 °F 30.03 in WNW 16.0 mph 27.0 mph 60 % 0.00 in 577 W/m2
14:07 59.4 °F 44.6 °F 30.03 in WNW 15.0 mph 31.0 mph 58 % 0.00 in 545 W/m2
14:12 59.7 °F 45.8 °F 30.03 in WNW 14.0 mph 31.0 mph 60 % 0.00 in 541 W/m2
14:17 60.1 °F 46.6 °F 30.02 in WNW 12.0 mph 22.0 mph 61 % 0.00 in 608 W/m2
14:22 60.4 °F 46.9 °F 30.03 in WNW 14.0 mph 27.0 mph 61 % 0.00 in 629 W/m2
14:27 60.6 °F 46.7 °F 30.03 in WNW 13.0 mph 27.0 mph 60 % 0.00 in 116 W/m2
14:32 60.1 °F 45.7 °F 30.03 in WNW 12.0 mph 26.0 mph 59 % 0.00 in 116 W/m2
14:37 59.7 °F 45.4 °F 30.03 in WNW 15.0 mph 26.0 mph 59 % 0.00 in 547 W/m2
14:42 59.9 °F 46.4 °F 30.03 in WNW 15.0 mph 26.0 mph 61 % 0.00 in 508 W/m2
14:47 59.9 °F 46.8 °F 30.04 in WNW 15.0 mph 24.0 mph 62 % 0.00 in 513 W/m2
14:57 59.5 °F 47.3 °F 30.04 in WNW 12.0 mph 27.0 mph 64 % 0.00 in 473 W/m2
15:02 59.7 °F 46.7 °F 30.05 in WNW 12.0 mph 24.0 mph 62 % 0.00 in 487 W/m2
15:03 59.7 °F 47.1 °F 30.05 in WNW 12.0 mph 24.0 mph 63 % 0.00 in 487 W/m2
15:08 59.9 °F 47.7 °F 30.05 in WNW 11.0 mph 24.0 mph 64 % 0.00 in 455 W/m2
15:13 60.1 °F 47.9 °F 30.05 in WNW 11.0 mph 21.0 mph 64 % 0.00 in 434 W/m2
15:18 60.1 °F 47.4 °F 30.04 in WNW 13.0 mph 21.0 mph 63 % 0.00 in 425 W/m2
15:23 59.5 °F 47.3 °F 30.04 in WNW 15.0 mph 23.0 mph 64 % 0.00 in 418 W/m2
15:33 59.0 °F 47.7 °F 30.04 in WNW 16.0 mph 26.0 mph 66 % 0.00 in 392 W/m2
15:38 59.2 °F 47.0 °F 30.04 in WNW 14.0 mph 26.0 mph 64 % 0.00 in 388 W/m2
15:43 59.0 °F 46.0 °F 30.04 in WNW 14.0 mph 26.0 mph 62 % 0.00 in 376 W/m2
15:48 59.0 °F 45.6 °F 30.04 in WNW 14.0 mph 26.0 mph 61 % 0.00 in 367 W/m2
15:53 59.2 °F 45.3 °F 30.05 in WNW 13.0 mph 27.0 mph 60 % 0.00 in 355 W/m2
15:58 58.8 °F 45.8 °F 30.05 in WNW 16.0 mph 27.0 mph 62 % 0.00 in 339 W/m2
16:03 58.3 °F 46.2 °F 30.05 in WNW 17.0 mph 27.0 mph 64 % 0.00 in 325 W/m2
16:08 57.9 °F 47.0 °F 30.05 in WNW 16.0 mph 27.0 mph 67 % 0.00 in 311 W/m2
16:13 57.7 °F 46.9 °F 30.05 in WNW 15.0 mph 27.0 mph 67 % 0.00 in 299 W/m2
16:18 57.7 °F 47.2 °F 30.05 in WNW 15.0 mph 27.0 mph 68 % 0.00 in 295 W/m2
16:23 57.7 °F 47.6 °F 30.05 in WNW 14.0 mph 25.0 mph 69 % 0.00 in 283 W/m2
16:28 57.7 °F 47.2 °F 30.06 in WNW 14.0 mph 25.0 mph 68 % 0.00 in 269 W/m2
16:33 57.6 °F 47.5 °F 30.06 in WNW 14.0 mph 25.0 mph 69 % 0.00 in 255 W/m2
16:38 57.0 °F 46.6 °F 30.06 in WNW 13.0 mph 25.0 mph 68 % 0.00 in 239 W/m2
16:43 56.8 °F 47.2 °F 30.06 in WNW 13.0 mph 27.0 mph 70 % 0.00 in 227 W/m2
16:48 56.7 °F 46.6 °F 30.06 in WNW 13.0 mph 27.0 mph 69 % 0.00 in 213 W/m2
16:58 56.3 °F 46.6 °F 30.06 in WNW 11.0 mph 22.0 mph 70 % 0.00 in 183 W/m2
17:03 55.9 °F 46.7 °F 30.06 in WNW 12.0 mph 24.0 mph 71 % 0.00 in 174 W/m2
17:08 55.8 °F 46.9 °F 30.06 in WNW 13.0 mph 24.0 mph 72 % 0.00 in 158 W/m2
17:13 55.6 °F 47.1 °F 30.06 in WNW 12.0 mph 23.0 mph 73 % 0.00 in 142 W/m2
17:18 55.6 °F 47.1 °F 30.07 in WNW 12.0 mph 23.0 mph 73 % 0.00 in 128 W/m2
17:23 55.4 °F 47.2 °F 30.07 in WNW 10.0 mph 23.0 mph 74 % 0.00 in 42 W/m2
17:28 55.4 °F 47.2 °F 30.07 in WNW 9.0 mph 19.0 mph 74 % 0.00 in 33 W/m2
17:33 55.2 °F 47.1 °F 30.07 in WNW 10.0 mph 22.0 mph 74 % 0.00 in 35 W/m2
17:38 55.0 °F 46.9 °F 30.07 in WNW 11.0 mph 22.0 mph 74 % 0.00 in 23 W/m2
17:43 54.9 °F 46.7 °F 30.07 in WNW 12.0 mph 21.0 mph 74 % 0.00 in 25 W/m2
17:48 54.5 °F 46.7 °F 30.07 in WNW 13.0 mph 24.0 mph 75 % 0.00 in 23 W/m2
17:53 54.3 °F 46.9 °F 30.07 in WNW 12.0 mph 24.0 mph 76 % 0.00 in 18 W/m2
17:58 54.1 °F 47.1 °F 30.07 in WNW 11.0 mph 18.0 mph 77 % 0.00 in 16 W/m2
18:03 54.0 °F 46.9 °F 30.07 in WNW 11.0 mph 18.0 mph 77 % 0.00 in 14 W/m2
18:08 53.8 °F 46.4 °F 30.08 in WNW 12.0 mph 23.0 mph 76 % 0.00 in 12 W/m2
18:13 53.6 °F 46.2 °F 30.08 in WNW 14.0 mph 24.0 mph 76 % 0.00 in 11 W/m2
18:23 53.4 °F 46.0 °F 30.08 in WNW 14.0 mph 27.0 mph 76 % 0.00 in 9 W/m2
18:29 53.4 °F 46.0 °F 30.09 in WNW 13.0 mph 26.0 mph 76 % 0.00 in 7 W/m2
18:34 53.2 °F 46.2 °F 30.09 in WNW 11.0 mph 22.0 mph 77 % 0.00 in 5 W/m2
18:39 53.1 °F 46.0 °F 30.09 in WNW 11.0 mph 21.0 mph 77 % 0.00 in 5 W/m2
18:44 52.9 °F 45.9 °F 30.09 in WNW 11.0 mph 21.0 mph 77 % 0.00 in 0 W/m2
18:54 52.7 °F 46.0 °F 30.09 in WNW 11.0 mph 22.0 mph 78 % 0.00 in 0 W/m2
18:59 52.5 °F 45.9 °F 30.09 in WNW 10.0 mph 20.0 mph 78 % 0.00 in 0 W/m2
19:04 52.3 °F 46.0 °F 30.09 in WNW 10.0 mph 20.0 mph 79 % 0.00 in 0 W/m2
19:09 52.3 °F 46.0 °F 30.09 in WNW 10.0 mph 21.0 mph 79 % 0.00 in 0 W/m2
19:14 52.2 °F 46.2 °F 30.10 in WNW 11.0 mph 24.0 mph 80 % 0.00 in 0 W/m2
19:19 52.2 °F 46.2 °F 30.10 in WNW 12.0 mph 24.0 mph 80 % 0.00 in 0 W/m2
19:24 52.2 °F 46.5 °F 30.10 in WNW 10.0 mph 19.0 mph 81 % 0.00 in 0 W/m2
19:34 52.0 °F 46.3 °F 30.11 in WNW 9.0 mph 16.0 mph 81 % 0.00 in 0 W/m2
19:39 51.8 °F 46.5 °F 30.11 in NW 8.0 mph 16.0 mph 82 % 0.00 in 0 W/m2
19:49 51.6 °F 46.6 °F 30.12 in WNW 8.0 mph 15.0 mph 83 % 0.00 in 0 W/m2
19:54 51.6 °F 46.6 °F 30.12 in WNW 9.0 mph 16.0 mph 83 % 0.00 in 0 W/m2
19:59 51.6 °F 46.6 °F 30.12 in WNW 8.0 mph 16.0 mph 83 % 0.00 in 0 W/m2
20:04 51.4 °F 46.8 °F 30.12 in WNW 8.0 mph 15.0 mph 84 % 0.00 in 0 W/m2
20:09 51.4 °F 46.8 °F 30.12 in WNW 7.0 mph 15.0 mph 84 % 0.00 in 0 W/m2
20:19 51.3 °F 46.6 °F 30.12 in WNW 7.0 mph 18.0 mph 84 % 0.00 in 0 W/m2
20:24 51.3 °F 46.9 °F 30.12 in WNW 8.0 mph 20.0 mph 85 % 0.00 in 0 W/m2
20:29 51.3 °F 46.9 °F 30.12 in WNW 9.0 mph 20.0 mph 85 % 0.00 in 0 W/m2
20:39 51.1 °F 46.4 °F 30.13 in WNW 8.0 mph 16.0 mph 84 % 0.00 in 0 W/m2
20:49 51.1 °F 46.4 °F 30.13 in WNW 11.0 mph 19.0 mph 84 % 0.00 in 0 W/m2
20:54 51.1 °F 46.4 °F 30.13 in WNW 10.0 mph 16.0 mph 84 % 0.00 in 0 W/m2
20:59 51.1 °F 46.4 °F 30.14 in WNW 9.0 mph 16.0 mph 84 % 0.00 in 0 W/m2
21:04 51.1 °F 46.4 °F 30.14 in WNW 9.0 mph 15.0 mph 84 % 0.00 in 0 W/m2
21:09 51.1 °F 46.7 °F 30.14 in WNW 9.0 mph 15.0 mph 85 % 0.00 in 0 W/m2
21:14 50.9 °F 46.6 °F 30.14 in WNW 8.0 mph 15.0 mph 85 % 0.00 in 0 W/m2
21:19 50.7 °F 46.4 °F 30.14 in WNW 8.0 mph 12.0 mph 85 % 0.00 in 0 W/m2
21:29 50.5 °F 46.2 °F 30.14 in WNW 8.0 mph 15.0 mph 85 % 0.00 in 0 W/m2
21:34 50.5 °F 46.2 °F 30.14 in WNW 8.0 mph 13.0 mph 85 % 0.00 in 0 W/m2
21:39 50.4 °F 46.0 °F 30.14 in WNW 8.0 mph 15.0 mph 85 % 0.00 in 0 W/m2
21:44 50.4 °F 46.0 °F 30.14 in WNW 9.0 mph 15.0 mph 85 % 0.00 in 0 W/m2
21:49 50.2 °F 45.8 °F 30.14 in WNW 9.0 mph 14.0 mph 85 % 0.00 in 0 W/m2
21:54 50.2 °F 45.8 °F 30.14 in WNW 9.0 mph 14.0 mph 85 % 0.00 in 0 W/m2
21:59 50.0 °F 45.7 °F 30.14 in WNW 9.0 mph 15.0 mph 85 % 0.00 in 0 W/m2
22:04 49.8 °F 45.5 °F 30.14 in WNW 9.0 mph 15.0 mph 85 % 0.00 in 0 W/m2
22:09 49.8 °F 45.5 °F 30.15 in WNW 8.0 mph 14.0 mph 85 % 0.00 in 0 W/m2
22:14 49.8 °F 45.5 °F 30.15 in WNW 8.0 mph 13.0 mph 85 % 0.00 in 0 W/m2
22:19 49.6 °F 45.3 °F 30.15 in WNW 8.0 mph 13.0 mph 85 % 0.00 in 0 W/m2
22:24 49.6 °F 45.3 °F 30.15 in WNW 8.0 mph 13.0 mph 85 % 0.00 in 0 W/m2
22:30 49.5 °F 45.1 °F 30.15 in WNW 8.0 mph 13.0 mph 85 % 0.00 in 0 W/m2
22:34 49.5 °F 45.1 °F 30.15 in WNW 8.0 mph 12.0 mph 85 % 0.00 in 0 W/m2
22:39 49.5 °F 45.1 °F 30.15 in WNW 7.0 mph 12.0 mph 85 % 0.00 in 0 W/m2
22:45 49.3 °F 45.0 °F 30.15 in WNW 7.0 mph 13.0 mph 85 % 0.00 in 0 W/m2
22:50 49.3 °F 45.0 °F 30.16 in WNW 8.0 mph 14.0 mph 85 % 0.00 in 0 W/m2
22:55 49.3 °F 45.0 °F 30.16 in WNW 8.0 mph 14.0 mph 85 % 0.00 in 0 W/m2
23:00 49.3 °F 45.0 °F 30.16 in WNW 9.0 mph 16.0 mph 85 % 0.00 in 0 W/m2
23:10 49.3 °F 45.0 °F 30.16 in WNW 10.0 mph 20.0 mph 85 % 0.00 in 0 W/m2
23:15 49.5 °F 45.1 °F 30.16 in WNW 11.0 mph 20.0 mph 85 % 0.00 in 0 W/m2
23:20 49.5 °F 45.1 °F 30.16 in WNW 10.0 mph 18.0 mph 85 % 0.00 in 0 W/m2
23:25 49.3 °F 45.0 °F 30.17 in WNW 8.0 mph 15.0 mph 85 % 0.00 in 0 W/m2
23:30 49.3 °F 45.0 °F 30.17 in WNW 9.0 mph 16.0 mph 85 % 0.00 in 0 W/m2
23:35 49.3 °F 45.0 °F 30.17 in WNW 10.0 mph 16.0 mph 85 % 0.00 in 0 W/m2
23:50 49.1 °F 44.8 °F 30.17 in WNW 8.0 mph 13.0 mph 85 % 0.00 in 0 W/m2
23:55 48.9 °F 44.6 °F 30.17 in WNW 7.0 mph 13.0 mph 85 % 0.00 in 0 W/m2
Delerius-Weather
Compliments of Weather Underground - 2.25 mb

Data updates at regular intervals.